Time;durP1;ratioP1;P1;durP2;ratioP2;P2;SDS_P1;SDS_P2;PMS_P1;PMS_P2;Temp;Humidity;BMP_temperature;BMP_pressure;BME280_temperature;BME280_humidity;BME280_pressure;Samples;Min_cycle;Max_cycle;Signal;HPM_P1;HPM_P2
2023/03/20 00:01:44;;;;;;;0.40;0.40;;;16.90;65.40;;;;;;5006102;28;20450;-71
2023/03/20 00:04:11;;;;;;;0.70;0.70;;;16.90;65.50;;;;;;5008335;28;20135;-72
2023/03/20 00:06:36;;;;;;;1.10;0.88;;;16.90;65.60;;;;;;5006181;28;20057;-71
2023/03/20 00:09:03;;;;;;;0.70;0.70;;;16.90;65.50;;;;;;5005007;28;20042;-71
2023/03/20 00:11:33;;;;;;;1.13;0.80;;;16.90;65.60;;;;;;5006949;28;20119;-72
2023/03/20 00:14:00;;;;;;;1.08;0.80;;;16.90;65.60;;;;;;4993209;28;20050;-72
2023/03/20 00:16:33;;;;;;;2.45;0.80;;;16.90;65.60;;;;;;5020953;28;20046;-71
2023/03/20 00:18:59;;;;;;;0.50;0.40;;;16.80;65.50;;;;;;5007976;28;20576;-72
2023/03/20 00:21:25;;;;;;;1.25;0.55;;;16.90;65.60;;;;;;5006965;28;20058;-72
2023/03/20 00:23:50;;;;;;;0.68;0.50;;;16.80;65.40;;;;;;4991664;28;20132;-72
2023/03/20 00:26:19;;;;;;;0.60;0.60;;;16.80;65.60;;;;;;5006793;28;20491;-72
2023/03/20 00:28:46;;;;;;;1.58;0.70;;;16.90;65.60;;;;;;4993086;28;20034;-71
2023/03/20 00:31:18;;;;;;;0.50;0.50;;;16.80;65.50;;;;;;4992870;28;20152;-72
2023/03/20 00:33:44;;;;;;;1.00;0.90;;;16.90;65.50;;;;;;5009804;28;20910;-72
2023/03/20 00:36:10;;;;;;;1.52;0.60;;;16.80;65.50;;;;;;5004269;28;20076;-71
2023/03/20 00:38:35;;;;;;;0.80;0.80;;;16.80;65.50;;;;;;4990281;28;20077;-72
2023/03/20 00:41:01;;;;;;;0.50;0.50;;;16.80;65.50;;;;;;5004763;28;20056;-72
2023/03/20 00:43:26;;;;;;;0.85;0.70;;;16.80;65.50;;;;;;4987366;28;20050;-72
2023/03/20 00:45:52;;;;;;;0.60;0.60;;;16.80;65.60;;;;;;5022241;28;20141;-72
2023/03/20 00:48:17;;;;;;;0.50;0.50;;;16.80;65.50;;;;;;5003281;28;20045;-71
2023/03/20 00:50:43;;;;;;;0.60;0.50;;;16.80;65.50;;;;;;4982682;28;20107;-72
2023/03/20 00:53:10;;;;;;;0.60;0.50;;;16.80;65.50;;;;;;5006005;28;20593;-72
2023/03/20 00:55:36;;;;;;;0.63;0.55;;;16.80;65.70;;;;;;4979133;28;20050;-71
2023/03/20 00:58:01;;;;;;;0.68;0.68;;;16.80;65.60;;;;;;5007094;28;20087;-72
2023/03/20 01:00:33;;;;;;;0.70;0.60;;;16.80;65.50;;;;;;4983678;28;20074;-72
2023/03/20 01:02:59;;;;;;;0.63;0.50;;;16.80;65.50;;;;;;5008392;28;20038;-71
2023/03/20 01:05:26;;;;;;;0.45;0.45;;;16.80;65.50;;;;;;5000612;28;20093;-71
2023/03/20 01:07:51;;;;;;;0.60;0.52;;;16.80;65.60;;;;;;5006000;28;20041;-71
2023/03/20 01:10:17;;;;;;;0.80;0.68;;;16.80;65.60;;;;;;5019638;28;20584;-72
2023/03/20 01:12:43;;;;;;;0.45;0.45;;;16.80;65.70;;;;;;4992870;28;20046;-71
2023/03/20 01:15:16;;;;;;;0.55;0.40;;;16.80;65.70;;;;;;5003572;28;20098;-72
2023/03/20 01:17:41;;;;;;;0.70;0.70;;;16.80;65.60;;;;;;5007112;28;20049;-71
2023/03/20 01:20:21;;;;;;;0.50;0.40;;;16.80;66.50;;;;;;5007696;28;20038;-71
2023/03/20 01:22:47;;;;;;;1.02;0.82;;;16.80;65.80;;;;;;4999402;28;20046;-71
2023/03/20 01:25:13;;;;;;;0.88;0.77;;;16.80;65.50;;;;;;4999515;28;20030;-71
2023/03/20 01:27:38;;;;;;;0.50;0.50;;;16.80;65.80;;;;;;4988807;28;20050;-71
2023/03/20 01:30:29;;;;;;;0.93;0.70;;;16.80;65.60;;;;;;5004828;28;20065;-71
2023/03/20 01:32:55;;;;;;;0.65;0.63;;;16.80;65.60;;;;;;4990039;28;20069;-72
2023/03/20 01:35:22;;;;;;;0.75;0.52;;;16.80;65.80;;;;;;5000141;28;20467;-71
2023/03/20 01:37:48;;;;;;;0.70;0.60;;;16.80;65.70;;;;;;4990592;28;20165;-72
2023/03/20 01:40:32;;;;;;;0.43;0.30;;;16.80;65.70;;;;;;5019688;28;20355;-72
2023/03/20 01:42:59;;;;;;;0.93;0.73;;;16.80;65.60;;;;;;5006193;28;20119;-72
2023/03/20 01:45:28;;;;;;;1.48;0.70;;;16.80;66.50;;;;;;5020588;28;20038;-72
2023/03/20 01:47:53;;;;;;;0.95;0.60;;;16.70;65.60;;;;;;4989260;28;20049;-72
2023/03/20 01:50:25;;;;;;;0.55;0.55;;;16.80;65.70;;;;;;5005004;28;20034;-72
2023/03/20 01:52:56;;;;;;;0.40;0.40;;;16.80;65.70;;;;;;5005997;28;20107;-71
2023/03/20 01:55:22;;;;;;;0.55;0.55;;;16.70;65.60;;;;;;4983670;28;20049;-72
2023/03/20 01:57:48;;;;;;;0.80;0.65;;;16.80;65.70;;;;;;4989584;28;20481;-72
2023/03/20 02:00:15;;;;;;;0.50;0.50;;;16.70;65.80;;;;;;4973260;28;20519;-72
2023/03/20 02:02:41;;;;;;;0.60;0.50;;;16.80;65.70;;;;;;5007201;28;20077;-72
2023/03/20 02:05:09;;;;;;;0.52;0.52;;;16.70;65.60;;;;;;5006507;28;20415;-72
2023/03/20 02:07:35;;;;;;;0.70;0.70;;;16.80;66.30;;;;;;4995964;28;20052;-72
2023/03/20 02:10:05;;;;;;;0.70;0.57;;;16.80;65.70;;;;;;4988816;28;20520;-72
2023/03/20 02:12:31;;;;;;;1.02;0.40;;;16.80;65.50;;;;;;4994206;28;20042;-72
2023/03/20 02:14:57;;;;;;;0.70;0.70;;;16.70;65.60;;;;;;5004440;28;20052;-71
2023/03/20 02:17:23;;;;;;;0.68;0.68;;;16.80;65.50;;;;;;5000356;28;20047;-71
2023/03/20 02:19:55;;;;;;;0.57;0.57;;;16.80;65.60;;;;;;5001133;28;20040;-72
2023/03/20 02:22:42;;;;;;;0.52;0.50;;;16.70;65.50;;;;;;5006643;28;20060;-71
2023/03/20 02:25:14;;;;;;;0.70;0.70;;;16.70;65.50;;;;;;5010582;28;20534;-72
2023/03/20 02:27:58;;;;;;;0.65;0.45;;;16.70;65.60;;;;;;5009092;28;20046;-71
2023/03/20 02:30:51;;;;;;;0.45;0.45;;;16.70;65.50;;;;;;5011063;28;20054;-72
2023/03/20 02:33:54;;;;;;;0.38;0.30;;;16.70;65.50;;;;;;5009985;28;20056;-73
2023/03/20 02:36:32;;;;;;;0.52;0.50;;;16.70;65.60;;;;;;5009727;28;20034;-72
2023/03/20 02:39:19;;;;;;;0.43;0.43;;;16.70;65.50;;;;;;5012975;28;20050;-77
2023/03/20 02:41:51;;;;;;;0.60;0.50;;;16.70;65.50;;;;;;5013147;28;20046;-77
2023/03/20 02:44:35;;;;;;;0.85;0.40;;;16.70;65.50;;;;;;5010699;28;20092;-77
2023/03/20 02:47:13;;;;;;;0.40;0.40;;;16.70;65.50;;;;;;5015226;28;20045;-77
2023/03/20 02:49:57;;;;;;;0.50;0.50;;;16.70;65.50;;;;;;5012993;28;20038;-78
2023/03/20 02:52:39;;;;;;;0.55;0.55;;;16.70;65.50;;;;;;5013785;28;20037;-77
2023/03/20 02:55:14;;;;;;;0.77;0.52;;;16.70;65.40;;;;;;5012520;28;20043;-77
2023/03/20 02:57:52;;;;;;;0.57;0.40;;;16.70;65.50;;;;;;5012145;28;20042;-77
2023/03/20 03:00:38;;;;;;;0.85;0.50;;;16.70;65.50;;;;;;5003299;28;20061;-77
2023/03/20 03:03:18;;;;;;;0.63;0.60;;;16.70;65.40;;;;;;5008006;28;20042;-78
2023/03/20 03:05:50;;;;;;;0.60;0.50;;;16.70;65.50;;;;;;5013308;28;20586;-78
2023/03/20 03:08:16;;;;;;;0.50;0.50;;;16.70;65.40;;;;;;5009000;28;20106;-77
2023/03/20 03:11:08;;;;;;;0.40;0.40;;;16.70;65.60;;;;;;5029964;28;20529;-78
2023/03/20 03:13:36;;;;;;;0.68;0.40;;;16.70;65.50;;;;;;5018284;28;20099;-77
2023/03/20 03:16:06;;;;;;;0.80;0.52;;;16.70;65.60;;;;;;5011061;28;20037;-78
2023/03/20 03:18:33;;;;;;;0.40;0.40;;;16.70;65.70;;;;;;5009914;28;20060;-78
2023/03/20 03:20:59;;;;;;;0.50;0.30;;;16.70;65.50;;;;;;4997448;28;20115;-77
2023/03/20 03:23:30;;;;;;;0.50;0.50;;;16.70;65.60;;;;;;4993113;28;20052;-77
2023/03/20 03:25:56;;;;;;;0.60;0.57;;;16.70;65.50;;;;;;5010860;28;20050;-78
2023/03/20 03:28:26;;;;;;;0.40;0.40;;;16.70;65.60;;;;;;5025003;28;20049;-78
2023/03/20 03:30:52;;;;;;;0.60;0.45;;;16.70;65.60;;;;;;5021460;28;20128;-78
2023/03/20 03:33:22;;;;;;;0.40;0.40;;;16.70;65.50;;;;;;5008398;28;20137;-77
2023/03/20 03:35:47;;;;;;;1.58;0.38;;;16.70;65.50;;;;;;5006676;28;20058;-77
2023/03/20 03:38:37;;;;;;;0.40;0.40;;;16.70;65.60;;;;;;5022211;28;20053;-78
2023/03/20 03:41:24;;;;;;;1.30;0.40;;;16.70;65.40;;;;;;5010001;28;20152;-77
2023/03/20 03:43:56;;;;;;;0.55;0.55;;;16.70;66.20;;;;;;5008128;28;20037;-77
2023/03/20 03:46:36;;;;;;;0.82;0.65;;;16.70;65.50;;;;;;5006496;28;20042;-77
2023/03/20 03:49:02;;;;;;;0.68;0.32;;;16.60;65.40;;;;;;5013547;28;20050;-77
2023/03/20 03:51:29;;;;;;;1.23;0.50;;;16.70;65.50;;;;;;4995648;28;20097;-77
2023/03/20 03:54:07;;;;;;;0.50;0.47;;;16.70;65.50;;;;;;5006417;28;20049;-78
2023/03/20 03:56:34;;;;;;;0.40;0.30;;;16.70;65.40;;;;;;5005772;28;20046;-78
2023/03/20 03:59:02;;;;;;;0.80;0.60;;;16.70;65.50;;;;;;5002943;28;20506;-78
2023/03/20 04:01:29;;;;;;;0.52;0.40;;;16.70;65.40;;;;;;5006947;28;20045;-78
2023/03/20 04:03:56;;;;;;;0.52;0.52;;;16.70;65.40;;;;;;5023245;28;20261;-78
2023/03/20 04:06:22;;;;;;;0.80;0.52;;;16.60;65.20;;;;;;5021486;28;20048;-78
2023/03/20 04:08:47;;;;;;;0.43;0.43;;;16.70;65.50;;;;;;5006419;28;20053;-78
2023/03/20 04:11:20;;;;;;;0.35;0.30;;;16.70;65.50;;;;;;5010729;28;20141;-78
2023/03/20 04:13:47;;;;;;;0.47;0.40;;;16.70;65.40;;;;;;5007025;28;20410;-78
2023/03/20 04:16:13;;;;;;;0.30;0.30;;;16.70;65.40;;;;;;5003475;28;20046;-78
2023/03/20 04:18:39;;;;;;;0.70;0.40;;;16.70;65.50;;;;;;5004615;28;20038;-78
2023/03/20 04:21:05;;;;;;;0.85;0.60;;;16.70;65.50;;;;;;5006383;28;20034;-78
2023/03/20 04:23:31;;;;;;;0.60;0.60;;;16.70;65.40;;;;;;5006728;28;20589;-78
2023/03/20 04:25:57;;;;;;;0.93;0.45;;;16.70;65.60;;;;;;5008543;28;20053;-78
2023/03/20 04:28:23;;;;;;;1.30;0.52;;;16.70;65.70;;;;;;5005142;28;20046;-78
2023/03/20 04:30:56;;;;;;;0.38;0.38;;;16.70;65.70;;;;;;5006575;28;20515;-77
2023/03/20 04:33:22;;;;;;;0.60;0.60;;;16.70;65.60;;;;;;5014285;28;20046;-77
2023/03/20 04:35:47;;;;;;;0.50;0.38;;;16.70;65.60;;;;;;5004653;28;20045;-78
2023/03/20 04:38:13;;;;;;;0.50;0.50;;;16.60;65.40;;;;;;5010319;28;20137;-78
2023/03/20 04:40:39;;;;;;;0.63;0.50;;;16.70;65.50;;;;;;5008747;28;20050;-77
2023/03/20 04:43:04;;;;;;;0.47;0.45;;;16.60;65.50;;;;;;5005608;28;20046;-78
2023/03/20 04:45:30;;;;;;;0.50;0.45;;;16.70;65.50;;;;;;5017614;28;20042;-77
2023/03/20 04:47:56;;;;;;;0.50;0.50;;;16.60;65.30;;;;;;5006293;28;20088;-78
2023/03/20 04:50:21;;;;;;;0.60;0.57;;;16.60;65.50;;;;;;5004277;28;20423;-76
2023/03/20 04:52:47;;;;;;;1.05;0.70;;;16.60;65.40;;;;;;5004984;28;20506;-78
2023/03/20 04:55:12;;;;;;;0.40;0.40;;;16.60;65.40;;;;;;5007159;28;20124;-77
2023/03/20 04:57:38;;;;;;;0.55;0.50;;;16.60;65.60;;;;;;5003653;28;20038;-77
2023/03/20 05:00:04;;;;;;;0.90;0.77;;;16.60;65.50;;;;;;5008831;28;20038;-77
2023/03/20 05:02:30;;;;;;;0.60;0.60;;;16.60;65.50;;;;;;5008282;28;20038;-78
2023/03/20 05:04:55;;;;;;;0.50;0.40;;;16.60;65.50;;;;;;5004976;28;20048;-78
2023/03/20 05:07:21;;;;;;;0.70;0.60;;;16.60;65.40;;;;;;5004491;28;20125;-76
2023/03/20 05:09:46;;;;;;;0.60;0.43;;;16.60;65.50;;;;;;5007818;28;20056;-78
2023/03/20 05:12:12;;;;;;;0.60;0.52;;;16.60;65.50;;;;;;5016359;28;20442;-78
2023/03/20 05:14:38;;;;;;;0.50;0.47;;;16.60;65.60;;;;;;5006744;28;20050;-78
2023/03/20 05:17:03;;;;;;;0.50;0.50;;;16.60;65.40;;;;;;5006527;28;20065;-78
2023/03/20 05:19:29;;;;;;;0.63;0.63;;;16.60;65.50;;;;;;5008090;28;20527;-78
2023/03/20 05:21:55;;;;;;;0.60;0.55;;;16.60;65.60;;;;;;5011032;28;20038;-78
2023/03/20 05:24:21;;;;;;;0.65;0.60;;;16.60;65.50;;;;;;5007873;28;20510;-78
2023/03/20 05:26:46;;;;;;;0.60;0.47;;;16.60;65.40;;;;;;5004111;28;20056;-78
2023/03/20 05:29:12;;;;;;;0.50;0.50;;;16.60;65.40;;;;;;5002976;28;20056;-77
2023/03/20 05:31:37;;;;;;;0.50;0.50;;;16.60;65.50;;;;;;5003747;28;20585;-77
2023/03/20 05:34:04;;;;;;;0.65;0.65;;;16.60;65.50;;;;;;5022689;28;20048;-78
2023/03/20 05:36:30;;;;;;;1.77;0.70;;;16.60;65.50;;;;;;5001611;28;20035;-78
2023/03/20 05:38:55;;;;;;;0.40;0.40;;;16.60;65.50;;;;;;5003313;28;20053;-78
2023/03/20 05:41:21;;;;;;;0.63;0.60;;;16.60;65.60;;;;;;5007233;28;20046;-78
2023/03/20 05:43:47;;;;;;;0.68;0.40;;;16.60;65.50;;;;;;5005617;28;20038;-77
2023/03/20 05:46:12;;;;;;;0.50;0.50;;;16.60;65.50;;;;;;5005075;28;20080;-78
2023/03/20 05:48:38;;;;;;;0.45;0.40;;;16.60;65.60;;;;;;5004789;28;20057;-78
2023/03/20 05:51:04;;;;;;;0.85;0.60;;;16.60;65.50;;;;;;5009207;28;20526;-78
2023/03/20 05:53:30;;;;;;;0.40;0.40;;;16.60;65.50;;;;;;5004598;28;20120;-78
2023/03/20 05:55:55;;;;;;;0.60;0.60;;;16.60;65.50;;;;;;5007200;28;20129;-77
2023/03/20 05:58:21;;;;;;;0.75;0.60;;;16.60;65.50;;;;;;5005082;28;20517;-77
2023/03/20 06:00:47;;;;;;;0.70;0.60;;;16.60;65.60;;;;;;5005310;28;20049;-77
2023/03/20 06:03:12;;;;;;;1.98;0.75;;;16.60;65.50;;;;;;5004562;28;20052;-78
2023/03/20 06:05:38;;;;;;;1.30;0.47;;;16.60;65.40;;;;;;5002945;28;20052;-77
2023/03/20 06:08:04;;;;;;;0.50;0.50;;;16.60;65.70;;;;;;5005420;28;20423;-77
2023/03/20 06:10:30;;;;;;;0.95;0.85;;;16.60;65.40;;;;;;5002009;28;20042;-79
2023/03/20 06:12:56;;;;;;;1.85;0.70;;;16.60;65.90;;;;;;5019864;28;20503;-82
2023/03/20 06:15:23;;;;;;;0.80;0.50;;;16.70;65.90;;;;;;5002701;28;20067;-78
2023/03/20 06:17:49;;;;;;;0.75;0.75;;;16.60;66.10;;;;;;5004594;28;20080;-78
2023/03/20 06:20:15;;;;;;;0.60;0.60;;;16.60;66.20;;;;;;5021396;28;20037;-77
2023/03/20 06:22:40;;;;;;;2.03;0.60;;;16.70;66.30;;;;;;4999653;28;20038;-79
2023/03/20 06:25:06;;;;;;;0.40;0.40;;;16.70;66.40;;;;;;4650412;28;9999894;-78
2023/03/20 06:27:32;;;;;;;0.68;0.60;;;16.70;66.40;;;;;;4999166;28;20048;-78
2023/03/20 06:29:58;;;;;;;0.63;0.52;;;16.70;66.30;;;;;;4997338;28;20046;-78
2023/03/20 06:32:23;;;;;;;1.45;0.47;;;16.70;67.00;;;;;;4997197;28;20049;-77
2023/03/20 06:34:49;;;;;;;0.55;0.30;;;16.70;66.20;;;;;;5000514;28;20046;-78
2023/03/20 06:37:14;;;;;;;0.45;0.45;;;16.70;66.20;;;;;;4997441;28;20045;-80
2023/03/20 06:39:40;;;;;;;1.30;0.50;;;16.70;66.30;;;;;;5000614;28;20038;-78
2023/03/20 06:42:06;;;;;;;0.35;0.35;;;16.70;66.50;;;;;;4999198;28;20113;-77
2023/03/20 06:44:31;;;;;;;0.82;0.55;;;16.70;66.30;;;;;;4999418;28;20041;-79
2023/03/20 06:46:57;;;;;;;0.60;0.60;;;16.70;66.70;;;;;;5004354;28;20046;-80
2023/03/20 06:49:22;;;;;;;1.38;0.60;;;16.70;67.00;;;;;;5003444;28;21851;-79
2023/03/20 06:51:48;;;;;;;0.80;0.50;;;16.70;66.70;;;;;;5005757;28;20045;-79
2023/03/20 06:54:14;;;;;;;1.42;0.50;;;16.70;66.90;;;;;;5006629;28;20041;-79
2023/03/20 06:56:39;;;;;;;1.80;0.60;;;16.70;67.20;;;;;;5001021;28;20503;-81
2023/03/20 06:59:05;;;;;;;0.95;0.50;;;16.70;67.20;;;;;;5002439;28;20513;-84
2023/03/20 07:01:30;;;;;;;0.60;0.60;;;16.70;66.70;;;;;;5001596;28;20522;-78
2023/03/20 07:03:56;;;;;;;0.80;0.57;;;16.70;67.20;;;;;;5001934;28;20042;-78
2023/03/20 07:06:22;;;;;;;0.90;0.50;;;16.80;67.20;;;;;;5002537;28;20546;-80
2023/03/20 07:08:47;;;;;;;0.75;0.50;;;16.70;67.30;;;;;;5002572;28;20779;-79
2023/03/20 07:11:13;;;;;;;0.40;0.40;;;16.70;67.10;;;;;;5006581;28;20399;-79
2023/03/20 07:13:38;;;;;;;0.50;0.50;;;16.70;66.90;;;;;;5006718;28;20069;-82
2023/03/20 07:16:05;;;;;;;1.15;0.60;;;16.70;67.20;;;;;;5006657;28;20054;-79
2023/03/20 07:18:30;;;;;;;0.88;0.47;;;16.70;67.00;;;;;;5006803;28;20129;-78
2023/03/20 07:21:01;;;;;;;0.73;0.47;;;16.80;67.50;;;;;;5019359;28;20053;-78
2023/03/20 07:23:28;;;;;;;1.05;0.40;;;16.70;67.10;;;;;;5016115;28;20411;-78
2023/03/20 07:25:53;;;;;;;0.65;0.60;;;16.80;67.40;;;;;;4999922;28;20042;-79
2023/03/20 07:28:19;;;;;;;0.55;0.40;;;16.80;67.70;;;;;;5000707;28;20045;-78
2023/03/20 07:30:45;;;;;;;1.67;0.50;;;16.70;67.80;;;;;;5003698;28;20065;-80
2023/03/20 07:33:11;;;;;;;2.47;0.82;;;16.70;67.50;;;;;;5006236;28;20034;-79
2023/03/20 07:35:38;;;;;;;0.50;0.45;;;16.80;67.70;;;;;;5005681;28;20038;-78
2023/03/20 07:38:04;;;;;;;0.50;0.47;;;16.80;67.80;;;;;;5005273;28;20065;-80
2023/03/20 07:40:30;;;;;;;2.85;0.40;;;16.80;67.50;;;;;;5020596;28;20038;-80
2023/03/20 07:42:56;;;;;;;0.93;0.50;;;16.80;67.30;;;;;;5007536;28;20095;-80
2023/03/20 07:45:22;;;;;;;0.60;0.60;;;16.80;67.30;;;;;;5022740;28;20046;-80
2023/03/20 07:47:47;;;;;;;0.95;0.60;;;16.80;67.30;;;;;;5002831;28;20041;-80
2023/03/20 07:50:13;;;;;;;0.77;0.50;;;16.80;68.20;;;;;;5010862;28;20077;-80
2023/03/20 07:52:39;;;;;;;0.80;0.68;;;16.90;67.10;;;;;;5004895;28;20511;-80
2023/03/20 07:55:05;;;;;;;0.70;0.70;;;16.90;66.70;;;;;;5008405;28;20454;-80
2023/03/20 07:57:30;;;;;;;0.57;0.50;;;16.90;67.00;;;;;;5005856;28;20060;-80
2023/03/20 07:59:56;;;;;;;0.75;0.70;;;16.90;66.50;;;;;;5008434;28;20426;-80
2023/03/20 08:02:21;;;;;;;0.60;0.55;;;16.90;66.70;;;;;;5013635;28;20132;-81
2023/03/20 08:04:47;;;;;;;0.60;0.60;;;16.90;66.80;;;;;;5022064;28;20042;-82
2023/03/20 08:07:12;;;;;;;0.80;0.60;;;16.90;66.60;;;;;;5007736;28;20447;-80
2023/03/20 08:09:38;;;;;;;0.65;0.50;;;16.90;66.70;;;;;;5006871;28;20041;-80
2023/03/20 08:12:05;;;;;;;0.95;0.50;;;16.90;66.80;;;;;;5002086;28;20053;-81
2023/03/20 08:14:31;;;;;;;1.88;0.52;;;16.90;66.80;;;;;;5004599;28;20396;-85
2023/03/20 08:16:57;;;;;;;0.85;0.85;;;16.90;66.80;;;;;;4991325;28;20422;-85
2023/03/20 08:19:22;;;;;;;0.75;0.52;;;16.90;66.90;;;;;;5008442;28;20100;-81
2023/03/20 08:21:48;;;;;;;0.80;0.60;;;16.90;67.10;;;;;;5004977;28;20041;-83
2023/03/20 08:24:14;;;;;;;0.40;0.40;;;16.90;66.90;;;;;;4991877;28;20118;-82
2023/03/20 08:26:40;;;;;;;0.93;0.60;;;16.90;67.00;;;;;;4989658;28;20050;-82
2023/03/20 08:29:06;;;;;;;0.60;0.47;;;16.90;67.30;;;;;;5005691;28;20115;-83
2023/03/20 08:31:31;;;;;;;0.80;0.60;;;16.80;67.20;;;;;;5007773;28;20608;-84
2023/03/20 08:33:57;;;;;;;1.15;0.60;;;16.90;67.60;;;;;;5025827;28;20055;-85
2023/03/20 08:36:23;;;;;;;1.08;0.47;;;16.90;67.50;;;;;;5023327;28;20129;-78
2023/03/20 08:38:49;;;;;;;1.08;0.70;;;16.90;67.60;;;;;;4992013;28;20073;-78
2023/03/20 08:41:15;;;;;;;0.75;0.60;;;16.90;67.60;;;;;;5002090;28;20153;-80
2023/03/20 08:43:40;;;;;;;0.80;0.60;;;17.00;67.40;;;;;;5006857;28;20042;-80
2023/03/20 08:46:06;;;;;;;1.20;0.77;;;17.00;67.40;;;;;;5009150;28;20041;-81
2023/03/20 08:48:32;;;;;;;0.82;0.65;;;17.00;67.30;;;;;;5007948;28;20077;-78
2023/03/20 08:50:57;;;;;;;1.23;0.50;;;17.00;67.10;;;;;;5007118;28;20052;-78
2023/03/20 08:53:23;;;;;;;0.80;0.47;;;17.00;67.10;;;;;;5009117;28;20128;-78
2023/03/20 08:55:49;;;;;;;1.48;0.55;;;16.90;67.10;;;;;;5009006;28;20554;-80
2023/03/20 08:58:15;;;;;;;0.40;0.40;;;17.00;67.20;;;;;;5007812;28;20057;-80
2023/03/20 09:00:41;;;;;;;1.63;0.88;;;17.00;67.00;;;;;;5008993;28;20104;-83
2023/03/20 09:03:13;;;;;;;0.80;0.63;;;17.00;66.90;;;;;;5004092;28;20050;-79
2023/03/20 09:05:39;;;;;;;0.40;0.40;;;17.10;66.90;;;;;;5006222;28;20133;-79
2023/03/20 09:08:05;;;;;;;0.93;0.70;;;17.00;67.10;;;;;;5014447;28;20133;-79
2023/03/20 09:10:31;;;;;;;1.60;0.50;;;17.00;67.20;;;;;;5006997;28;20115;-79
2023/03/20 09:12:57;;;;;;;2.10;0.70;;;17.10;67.20;;;;;;4998938;28;20045;-79
2023/03/20 09:15:22;;;;;;;0.50;0.50;;;17.10;67.00;;;;;;5002782;28;20053;-79
2023/03/20 09:17:48;;;;;;;0.93;0.82;;;17.10;66.90;;;;;;5007054;28;20050;-79
2023/03/20 09:20:13;;;;;;;2.25;0.70;;;17.10;66.90;;;;;;5006754;28;20078;-80
2023/03/20 09:22:41;;;;;;;0.90;0.50;;;17.10;67.00;;;;;;5004929;28;20046;-79
2023/03/20 09:25:07;;;;;;;1.55;0.70;;;17.10;67.30;;;;;;5007426;28;20532;-79
2023/03/20 09:27:33;;;;;;;0.80;0.55;;;17.10;67.20;;;;;;5012584;28;20046;-80
2023/03/20 09:29:58;;;;;;;0.93;0.80;;;17.10;67.10;;;;;;5005106;28;20052;-79
2023/03/20 09:32:24;;;;;;;1.77;0.65;;;17.10;67.00;;;;;;4988993;28;20105;-80
2023/03/20 09:34:50;;;;;;;2.05;0.80;;;17.10;67.00;;;;;;5021355;28;20108;-79
2023/03/20 09:37:15;;;;;;;1.23;0.70;;;17.10;66.90;;;;;;5003277;28;20137;-79
2023/03/20 09:39:41;;;;;;;0.73;0.70;;;17.10;66.90;;;;;;4988902;28;20034;-79
2023/03/20 09:42:32;;;;;;;1.02;0.80;;;17.10;66.90;;;;;;5007626;28;20042;-80
2023/03/20 09:45:21;;;;;;;1.15;0.80;;;17.10;66.90;;;;;;5005124;28;20037;-79
2023/03/20 09:48:27;;;;;;;0.77;0.57;;;17.10;66.90;;;;;;5003665;28;20057;-79
2023/03/20 09:51:06;;;;;;;1.02;0.80;;;17.10;66.90;;;;;;5004640;28;20044;-79
2023/03/20 09:53:35;;;;;;;5.30;0.80;;;17.10;66.80;;;;;;5008915;28;20115;-80
2023/03/20 09:56:01;;;;;;;1.90;0.70;;;17.10;66.70;;;;;;5001808;28;20553;-80
2023/03/20 09:58:34;;;;;;;2.25;0.55;;;17.20;66.70;;;;;;5002454;28;20037;-80
2023/03/20 10:01:01;;;;;;;1.35;0.80;;;17.20;66.80;;;;;;5020989;28;20084;-79
2023/03/20 10:03:50;;;;;;;2.15;0.60;;;17.20;66.70;;;;;;5021825;28;20537;-80
2023/03/20 10:06:16;;;;;;;2.67;0.57;;;17.20;66.60;;;;;;5003047;28;20049;-79
2023/03/20 10:08:42;;;;;;;0.75;0.40;;;17.20;66.50;;;;;;5006992;28;20132;-80
2023/03/20 10:11:15;;;;;;;1.10;0.70;;;17.20;66.60;;;;;;4995843;28;20121;-80
2023/03/20 10:13:52;;;;;;;0.63;0.60;;;17.20;66.50;;;;;;5006268;28;20044;-79
2023/03/20 10:16:30;;;;;;;0.80;0.80;;;17.20;66.70;;;;;;5004502;28;20430;-80
2023/03/20 10:19:06;;;;;;;0.50;0.40;;;17.20;66.50;;;;;;5005376;28;20040;-80
2023/03/20 10:22:05;;;;;;;1.05;0.60;;;17.20;66.30;;;;;;5003925;28;20041;-80
2023/03/20 10:24:33;;;;;;;2.55;0.68;;;17.20;66.20;;;;;;4999166;28;20531;-80
2023/03/20 10:27:13;;;;;;;2.95;0.80;;;17.20;66.30;;;;;;5006757;28;20046;-79
2023/03/20 10:30:17;;;;;;;0.60;0.60;;;17.20;66.20;;;;;;5006943;28;20095;-80
2023/03/20 10:33:13;;;;;;;0.77;0.77;;;17.30;66.10;;;;;;5002651;28;20049;-80
2023/03/20 10:35:48;;;;;;;1.13;0.40;;;17.20;65.90;;;;;;5003661;28;20042;-80
2023/03/20 10:38:36;;;;;;;0.85;0.40;;;17.30;66.00;;;;;;5015434;28;20053;-80
2023/03/20 10:41:03;;;;;;;0.73;0.60;;;17.30;65.80;;;;;;5005423;28;20053;-79
2023/03/20 10:43:33;;;;;;;1.67;0.70;;;17.30;65.90;;;;;;5004653;28;20050;-80
2023/03/20 10:46:04;;;;;;;1.98;0.73;;;17.30;65.70;;;;;;4994428;28;20041;-80
2023/03/20 10:48:38;;;;;;;1.10;0.60;;;17.30;65.70;;;;;;5009604;28;20121;-80
2023/03/20 10:51:05;;;;;;;1.47;0.70;;;17.30;65.70;;;;;;5010349;28;20080;-80
2023/03/20 10:53:38;;;;;;;0.63;0.50;;;17.30;65.70;;;;;;5019678;28;20070;-80
2023/03/20 10:56:06;;;;;;;0.68;0.50;;;17.30;65.70;;;;;;5007685;28;20569;-80
2023/03/20 10:58:35;;;;;;;0.60;0.50;;;17.40;65.70;;;;;;5006733;28;20088;-80
2023/03/20 11:01:02;;;;;;;0.75;0.60;;;17.40;65.70;;;;;;5003320;28;20039;-80
2023/03/20 11:03:30;;;;;;;1.48;0.50;;;17.30;65.50;;;;;;4988932;28;20046;-80
2023/03/20 11:06:16;;;;;;;2.45;0.40;;;17.30;65.50;;;;;;4990244;28;20582;-79
2023/03/20 11:08:45;;;;;;;0.95;0.50;;;17.40;65.40;;;;;;5004180;28;20050;-79
2023/03/20 11:11:11;;;;;;;0.60;0.60;;;17.40;65.80;;;;;;5006506;28;20083;-80
2023/03/20 11:13:43;;;;;;;2.05;0.60;;;17.30;65.80;;;;;;5010287;28;20049;-80
2023/03/20 11:16:18;;;;;;;0.70;0.60;;;17.40;65.80;;;;;;5024632;28;20045;-80
2023/03/20 11:18:43;;;;;;;0.60;0.60;;;17.40;65.70;;;;;;5006716;28;20125;-80
2023/03/20 11:21:23;;;;;;;0.50;0.50;;;17.40;65.70;;;;;;5001087;28;20158;-80
2023/03/20 11:23:49;;;;;;;0.60;0.52;;;17.40;65.40;;;;;;5005912;28;20041;-80
2023/03/20 11:26:16;;;;;;;0.73;0.50;;;17.40;65.30;;;;;;4993539;28;20499;-80
2023/03/20 11:28:53;;;;;;;0.75;0.70;;;17.40;65.20;;;;;;4991888;28;20034;-80
2023/03/20 11:31:33;;;;;;;1.92;0.50;;;17.50;65.20;;;;;;5009370;28;20042;-81
2023/03/20 11:34:13;;;;;;;0.40;0.40;;;17.50;65.10;;;;;;5006258;28;20061;-80
2023/03/20 11:36:40;;;;;;;0.82;0.60;;;17.50;65.10;;;;;;5006817;28;20581;-80
2023/03/20 11:39:22;;;;;;;0.60;0.60;;;17.50;65.10;;;;;;4990624;28;20042;-80
2023/03/20 11:41:50;;;;;;;0.90;0.50;;;17.50;65.40;;;;;;5019342;28;20096;-80
2023/03/20 11:44:31;;;;;;;0.50;0.47;;;17.40;65.30;;;;;;5009872;28;20095;-80
2023/03/20 11:47:14;;;;;;;0.80;0.50;;;17.40;65.20;;;;;;5008130;28;20044;-80
2023/03/20 11:49:49;;;;;;;0.60;0.50;;;17.40;65.20;;;;;;5010474;28;20048;-80
2023/03/20 11:52:16;;;;;;;0.55;0.55;;;17.50;65.20;;;;;;4990961;28;20144;-80
2023/03/20 11:54:50;;;;;;;0.40;0.40;;;17.50;65.10;;;;;;5005425;28;20488;-81
2023/03/20 11:57:40;;;;;;;1.85;0.40;;;17.50;65.10;;;;;;5002964;28;20045;-80
2023/03/20 12:00:06;;;;;;;0.60;0.52;;;17.50;65.00;;;;;;5004668;28;20133;-80
2023/03/20 12:02:31;;;;;;;0.90;0.52;;;17.50;65.00;;;;;;5008812;28;20087;-80
2023/03/20 12:05:00;;;;;;;0.50;0.45;;;17.50;64.90;;;;;;5008290;28;20046;-80
2023/03/20 12:07:31;;;;;;;0.65;0.65;;;17.50;64.90;;;;;;5009864;28;20117;-80
2023/03/20 12:10:07;;;;;;;0.60;0.60;;;17.50;65.00;;;;;;5006319;28;20062;-80
2023/03/20 12:12:35;;;;;;;0.45;0.40;;;17.60;65.00;;;;;;5020115;28;20038;-80
2023/03/20 12:15:07;;;;;;;0.73;0.60;;;17.50;64.80;;;;;;5009279;28;20076;-80
2023/03/20 12:17:42;;;;;;;0.40;0.40;;;17.60;64.80;;;;;;5009236;28;20546;-80
2023/03/20 12:20:35;;;;;;;0.40;0.40;;;17.60;64.80;;;;;;5007570;28;20114;-80
2023/03/20 12:23:12;;;;;;;0.63;0.50;;;17.60;64.70;;;;;;4991342;28;20038;-80
2023/03/20 12:25:58;;;;;;;0.75;0.40;;;17.60;64.80;;;;;;5005329;28;20121;-80
2023/03/20 12:28:53;;;;;;;0.40;0.40;;;17.60;64.80;;;;;;5008375;28;20095;-81
2023/03/20 12:31:32;;;;;;;0.88;0.50;;;17.60;64.70;;;;;;5010172;28;20057;-80
2023/03/20 12:34:04;;;;;;;1.17;0.60;;;17.60;64.70;;;;;;5003148;28;20094;-80
2023/03/20 12:36:38;;;;;;;0.75;0.20;;;17.60;64.70;;;;;;5015359;28;20043;-81
2023/03/20 12:39:14;;;;;;;0.30;0.30;;;17.60;64.60;;;;;;5010072;28;20045;-79
2023/03/20 12:42:05;;;;;;;0.40;0.40;;;17.60;64.70;;;;;;5006921;28;20065;-80
2023/03/20 12:44:49;;;;;;;0.35;0.32;;;17.60;64.60;;;;;;5005757;28;20338;-80
2023/03/20 12:47:44;;;;;;;1.92;0.52;;;17.60;64.60;;;;;;5022618;28;20077;-80
2023/03/20 12:50:40;;;;;;;0.50;0.47;;;17.60;65.00;;;;;;5003241;28;20052;-80
2023/03/20 12:53:25;;;;;;;0.80;0.60;;;17.60;65.50;;;;;;5001633;28;20065;-79
2023/03/20 12:55:58;;;;;;;1.27;0.98;;;17.60;65.90;;;;;;5016367;28;20046;-78
2023/03/20 12:58:39;;;;;;;1.48;0.70;;;17.60;68.20;;;;;;5002481;28;20053;-77
2023/03/20 13:01:11;;;;;;;0.80;0.73;;;17.60;67.80;;;;;;5003375;28;20449;-79
2023/03/20 13:03:56;;;;;;;1.08;0.70;;;17.60;68.40;;;;;;5005065;28;20045;-78